Terminal Aerodrome Forecast
Issued by NWS

Home | Current Version | Previous Version | Text Only | Print | Product List | Glossary On
Versions: 1 2 3 4 5 6 7 8 9 10 11 12 13 14 15 16 17 18 19 20 21 22 23 24 25 26 27 28
791
FTUS41 KOKX 282329
TAFSWF
TAF
KSWF 282329Z 2900/3006 VRB06KT P6SM -SHRA OVC060
     FM290700 VRB05KT P6SM BKN060
     FM291500 13005KT P6SM BKN060
     FM292000 12006KT P6SM -RA BKN050
     FM300000 10004KT P6SM -RA SCT025 BKN040
      AMD NOT SKED=

USA.gov is the U.S. government's official web portal to all federal, state and local government web resources and services.